Time;durP1;ratioP1;P1;durP2;ratioP2;P2;SDS_P1;SDS_P2;PMS_P1;PMS_P2;Temp;Humidity;BMP_temperature;BMP_pressure;BME280_temperature;BME280_humidity;BME280_pressure;Samples;Min_cycle;Max_cycle;Signal;HPM_P1;HPM_P2
2023/06/04 00:01:55;;;;;;;4.25;1.90;;;;;;;20.35;34.34;100618.44;39946102;29;20054;-75
2023/06/04 00:21:56;;;;;;;3.03;1.95;;;;;;;20.26;34.85;100624.34;39952081;29;20128;-76
2023/06/04 00:41:56;;;;;;;5.55;1.95;;;;;;;20.13;35.51;100613.84;39944840;29;20054;-76
2023/06/04 01:02:03;;;;;;;5.30;1.88;;;;;;;20.12;35.34;100606.91;39962854;29;20695;-76
2023/06/04 01:22:16;;;;;;;3.05;1.80;;;;;;;19.85;36.32;100610.47;39945250;29;20086;-75
2023/06/04 01:42:16;;;;;;;4.18;2.03;;;;;;;19.68;36.52;100609.78;39936825;29;20054;-76
2023/06/04 02:02:21;;;;;;;3.42;1.85;;;;;;;19.60;36.77;100613.88;39913063;29;20099;-76
2023/06/04 02:22:21;;;;;;;3.13;1.90;;;;;;;19.51;37.37;100615.34;39918361;29;20422;-77
2023/06/04 02:42:22;;;;;;;4.25;1.92;;;;;;;19.38;38.20;100628.44;39920932;29;20054;-77
2023/06/04 03:23:33;;;;;;;7.18;2.13;;;;;;;19.54;38.30;100616.91;39675440;29;20077;-76
2023/06/04 03:43:34;;;;;;;6.68;1.83;;;;;;;19.28;38.83;100646.56;39658113;29;20141;-75
2023/06/04 04:03:34;;;;;;;5.07;1.90;;;;;;;19.36;38.91;100664.47;39648603;29;20063;-77
2023/06/04 04:23:35;;;;;;;5.30;1.92;;;;;;;19.31;38.37;100671.78;39533858;29;20109;-78
2023/06/04 04:43:41;;;;;;;4.60;1.98;;;;;;;19.27;37.98;100683.44;39542946;29;20047;-76
2023/06/04 05:03:42;;;;;;;4.07;1.63;;;;;;;19.44;37.77;100677.09;39540898;29;21177;-76
2023/06/04 05:23:45;;;;;;;4.28;1.60;;;;;;;20.13;37.51;100688.28;39519862;29;20055;-73
2023/06/04 05:43:45;;;;;;;2.58;1.40;;;;;;;20.53;38.07;100710.16;39518133;29;20043;-72
2023/06/04 06:03:46;;;;;;;3.70;1.30;;;;;;;20.86;37.61;100703.50;39529871;29;20062;-71
2023/06/04 06:23:46;;;;;;;4.65;1.40;;;;;;;21.16;37.74;100697.00;39553884;29;20047;-74
2023/06/04 06:43:49;;;;;;;10.18;1.55;;;;;;;21.51;38.33;100697.03;39526919;29;20138;-75
2023/06/04 07:03:49;;;;;;;2.75;1.10;;;;;;;;;;39528990;29;20052;-74
2023/06/04 07:23:50;;;;;;;5.20;1.40;;;;;;;21.95;38.61;100741.31;39535635;29;20055;-73
2023/06/04 07:44:00;;;;;;;4.55;1.42;;;;;;;22.15;38.97;100734.53;39540116;29;20051;-70
2023/06/04 08:04:01;;;;;;;2.28;1.20;;;;;;;22.34;39.09;100742.72;39514254;29;20047;-69
2023/06/04 08:24:02;;;;;;;4.32;1.50;;;;;;;22.55;38.97;100742.06;39550720;29;20051;-70
2023/06/04 08:44:06;;;;;;;3.95;1.40;;;;;;;22.71;39.35;100746.97;39552242;29;20856;-71
2023/06/04 09:04:07;;;;;;;5.50;1.48;;;;;;;22.52;32.24;100729.94;39538509;29;20454;-70
2023/06/04 09:24:08;;;;;;;4.70;1.40;;;;;;;22.49;31.56;100737.25;39550011;29;20048;-71
2023/06/04 09:44:10;;;;;;;3.33;1.50;;;;;;;22.42;31.16;100738.69;39549246;29;20124;-72
2023/06/04 10:04:13;;;;;;;7.18;1.77;;;;;;;22.40;31.67;100736.19;39534670;29;20472;-72
2023/06/04 10:24:14;;;;;;;7.00;2.22;;;;;;;22.45;32.29;100743.72;39536662;29;20055;-74
2023/06/04 10:44:16;;;;;;;9.68;3.90;;;;;;;22.59;37.29;100738.22;39562189;29;20047;-74
2023/06/04 11:04:26;;;;;;;10.48;2.58;;;;;;;22.93;38.32;100737.38;39574104;29;20055;-73
2023/06/04 11:24:29;;;;;;;6.47;2.60;;;;;;;23.10;38.01;100743.94;39538015;29;20043;-75
2023/06/04 11:44:32;;;;;;;5.40;2.13;;;;;;;23.22;37.82;100739.50;39581143;29;20055;-71
2023/06/04 12:04:32;;;;;;;3.53;1.75;;;;;;;23.28;37.94;100742.50;39573432;29;20051;-71
2023/06/04 12:24:37;;;;;;;5.57;1.75;;;;;;;23.32;38.21;100746.56;39552696;29;23636;-74
2023/06/04 12:44:40;;;;;;;2.42;1.80;;;;;;;23.41;38.36;100741.50;39541272;29;20067;-74
2023/06/04 13:04:42;;;;;;;7.68;1.85;;;;;;;23.47;38.34;100719.84;39540438;29;20143;-78
2023/06/04 13:24:45;;;;;;;2.50;1.33;;;;;;;23.52;38.17;100711.53;39515805;29;20060;-77
2023/06/04 13:44:45;;;;;;;5.57;1.80;;;;;;;23.64;38.77;100694.66;39521560;29;20089;-75
2023/06/04 14:04:45;;;;;;;5.07;1.83;;;;;;;23.72;37.04;100676.38;39518930;29;20122;-73
2023/06/04 14:24:46;;;;;;;5.82;1.70;;;;;;;23.76;36.42;100667.19;39525055;29;20069;-75
2023/06/04 14:44:46;;;;;;;2.63;1.85;;;;;;;23.79;36.13;100658.16;39529218;29;20561;-76
2023/06/04 15:04:47;;;;;;;6.75;2.40;;;;;;;23.81;36.17;100659.75;39534355;29;20388;-77
2023/06/04 15:24:47;;;;;;;5.20;2.45;;;;;;;23.67;35.38;100625.69;39540460;29;20071;-78
2023/06/04 15:44:48;;;;;;;8.93;1.95;;;;;;;23.77;37.74;100637.16;39535326;29;20400;-78
2023/06/04 16:04:48;;;;;;;14.95;2.63;;;;;;;23.86;37.66;100638.16;39554625;29;20097;-76
2023/06/04 16:24:55;;;;;;;3.97;2.17;;;;;;;23.91;37.95;100617.47;39537534;29;21165;-79
2023/06/04 16:44:56;;;;;;;2.50;1.85;;;;;;;23.95;38.78;100626.03;39540369;29;20126;-85
2023/06/04 17:04:57;;;;;;;9.43;2.20;;;;;;;23.95;39.16;100618.09;39544378;29;20494;-85
2023/06/04 17:24:59;;;;;;;8.20;2.47;;;;;;;23.98;39.83;100628.38;39559407;29;20040;-86
2023/06/04 17:45:07;;;;;;;5.45;2.70;;;;;;;23.86;38.67;100624.94;39559797;29;20067;-79
2023/06/04 18:05:08;;;;;;;3.85;2.80;;;;;;;23.76;38.12;100635.47;39535754;29;20531;-79
2023/06/04 18:25:09;;;;;;;3.53;2.30;;;;;;;23.76;38.97;100627.53;39550143;29;20052;-85
2023/06/04 18:45:10;;;;;;;11.85;4.30;;;;;;;23.85;40.45;100648.88;39570996;29;20122;-83
2023/06/04 19:05:10;;;;;;;19.85;3.90;;;;;;;23.85;40.77;100662.09;39566786;29;20059;-75
2023/06/04 19:25:11;;;;;;;11.95;2.95;;;;;;;23.85;41.40;100676.16;39562119;29;20061;-81
2023/06/04 19:45:13;;;;;;;10.15;3.22;;;;;;;23.86;41.25;100674.38;39569265;29;20574;-83
2023/06/04 20:05:15;;;;;;;5.95;2.90;;;;;;;23.86;41.41;100675.19;39573618;29;20047;-81
2023/06/04 20:25:15;;;;;;;5.97;2.60;;;;;;;23.86;41.19;100677.00;39588132;29;20058;-83
2023/06/04 20:45:16;;;;;;;4.60;2.58;;;;;;;23.85;41.12;100664.75;39567983;29;20142;-81
2023/06/04 21:05:17;;;;;;;3.08;2.08;;;;;;;23.85;40.91;100662.09;39580257;29;20040;-81
2023/06/04 21:25:17;;;;;;;2.65;1.80;;;;;;;23.81;40.96;100665.03;39581549;29;20062;-81
2023/06/04 21:45:18;;;;;;;5.28;1.83;;;;;;;23.84;41.00;100674.50;39537488;29;20131;-82
2023/06/04 22:05:18;;;;;;;4.47;1.80;;;;;;;23.84;41.11;100674.50;39544037;29;20051;-77
2023/06/04 22:25:19;;;;;;;2.00;1.60;;;;;;;23.82;41.12;100681.72;39572616;29;20061;-83
2023/06/04 22:45:20;;;;;;;2.38;1.50;;;;;;;23.81;41.01;100677.38;39602452;29;20142;-82
2023/06/04 23:05:22;;;;;;;1.45;1.30;;;;;;;23.79;41.18;100684.59;39602546;29;20057;-82
2023/06/04 23:25:22;;;;;;;6.18;1.40;;;;;;;23.77;41.20;100670.69;39584956;29;20484;-82
2023/06/04 23:45:23;;;;;;;3.90;1.98;;;;;;;23.75;41.17;100664.69;39569301;29;20047;-82
